Time;durP1;ratioP1;P1;durP2;ratioP2;P2;SDS_P1;SDS_P2;PMS_P1;PMS_P2;Temp;Humidity;BMP_temperature;BMP_pressure;BME280_temperature;BME280_humidity;BME280_pressure;Samples;Min_cycle;Max_cycle;Signal;HPM_P1;HPM_P2
2022/08/19 00:00:09;;;;;;;11.20;9.57;;;16.80;99.90;;;;;;5039690;28;20172;-81
2022/08/19 00:02:36;;;;;;;9.97;8.53;;;16.80;99.90;;;;;;5039338;28;20190;-81
2022/08/19 00:05:03;;;;;;;9.67;8.23;;;16.80;99.90;;;;;;5039560;28;20181;-81
2022/08/19 00:07:28;;;;;;;9.17;7.87;;;16.80;99.90;;;;;;5039410;28;20178;-81
2022/08/19 00:09:54;;;;;;;8.93;7.97;;;16.80;99.90;;;;;;5039698;28;20680;-81
2022/08/19 00:12:20;;;;;;;8.83;7.77;;;16.80;99.90;;;;;;5039338;28;20190;-81
2022/08/19 00:14:46;;;;;;;8.20;7.17;;;;;;;;;;5038081;28;20178;-81
2022/08/19 00:17:12;;;;;;;7.37;6.67;;;16.70;99.90;;;;;;5039298;28;20175;-80
2022/08/19 00:19:38;;;;;;;7.43;6.73;;;16.80;99.90;;;;;;5039488;28;20257;-81
2022/08/19 00:22:05;;;;;;;7.77;6.97;;;16.70;99.90;;;;;;5037895;28;20205;-81
2022/08/19 00:24:31;;;;;;;7.63;6.53;;;16.80;99.90;;;;;;5037393;28;20220;-81
2022/08/19 00:26:57;;;;;;;7.70;6.73;;;16.80;99.90;;;;;;5039356;28;20236;-81
2022/08/19 00:29:25;;;;;;;6.33;5.73;;;16.70;99.90;;;;;;5039316;28;20202;-81
2022/08/19 00:31:56;;;;;;;7.57;5.87;;;16.70;99.90;;;;;;5040378;28;20186;-81
2022/08/19 00:34:23;;;;;;;7.37;6.57;;;16.70;99.90;;;;;;5037801;28;20274;-81
2022/08/19 00:36:49;;;;;;;7.20;6.50;;;16.80;99.90;;;;;;5037212;28;20257;-81
2022/08/19 00:39:16;;;;;;;6.77;6.17;;;16.70;99.90;;;;;;5038721;28;20178;-81
2022/08/19 00:41:43;;;;;;;8.03;5.80;;;16.90;99.90;;;;;;5038752;28;20216;-80
2022/08/19 00:44:15;;;;;;;8.23;5.97;;;16.70;99.90;;;;;;5038908;28;20233;-81
2022/08/19 00:46:44;;;;;;;6.23;5.63;;;16.70;99.90;;;;;;5038832;28;20178;-81
2022/08/19 00:49:22;;;;;;;5.83;5.30;;;16.70;99.90;;;;;;5038333;28;20202;-81
2022/08/19 00:51:54;;;;;;;6.57;5.77;;;16.70;99.90;;;;;;5038772;28;20285;-81
2022/08/19 00:54:21;;;;;;;6.40;5.70;;;16.60;99.90;;;;;;5037402;28;20201;-80
2022/08/19 00:56:47;;;;;;;6.67;5.67;;;16.70;99.90;;;;;;5038642;28;20174;-80
2022/08/19 00:59:14;;;;;;;6.33;5.77;;;16.70;99.90;;;;;;5038097;28;20186;-81
2022/08/19 01:01:43;;;;;;;6.00;5.40;;;16.80;99.90;;;;;;5036811;28;20694;-81
2022/08/19 01:04:10;;;;;;;7.70;5.90;;;16.80;99.90;;;;;;5038342;28;20178;-81
2022/08/19 01:06:37;;;;;;;6.73;6.03;;;16.80;99.90;;;;;;5036392;28;20178;-81
2022/08/19 01:09:03;;;;;;;6.33;5.33;;;16.70;99.90;;;;;;5039138;28;20202;-81
2022/08/19 01:11:31;;;;;;;6.50;5.57;;;16.80;99.90;;;;;;5039076;28;20198;-81
2022/08/19 01:13:58;;;;;;;9.67;6.47;;;16.80;99.90;;;;;;5036818;28;20252;-81
2022/08/19 01:16:26;;;;;;;6.93;5.77;;;16.80;99.90;;;;;;5037169;28;20356;-81
2022/08/19 01:18:53;;;;;;;7.47;6.07;;;16.90;99.90;;;;;;5038521;28;20262;-81
2022/08/19 01:21:37;;;;;;;7.77;6.37;;;16.80;99.90;;;;;;5038021;28;20193;-81
2022/08/19 01:24:04;;;;;;;8.03;6.20;;;16.80;99.90;;;;;;5039422;28;20174;-81
2022/08/19 01:26:30;;;;;;;9.43;6.70;;;16.70;99.90;;;;;;5038011;28;20205;-81
2022/08/19 01:28:58;;;;;;;6.90;6.20;;;17.00;99.90;;;;;;5036117;28;20205;-81
2022/08/19 01:31:26;;;;;;;7.47;6.57;;;16.80;99.90;;;;;;5038320;28;20217;-81
2022/08/19 01:33:54;;;;;;;8.67;7.50;;;16.80;99.90;;;;;;5037526;28;20632;-81
2022/08/19 01:36:30;;;;;;;8.30;7.00;;;16.80;99.90;;;;;;5038092;28;20175;-81
2022/08/19 01:38:57;;;;;;;7.60;6.87;;;16.90;99.90;;;;;;5038209;28;20174;-81
2022/08/19 01:41:23;;;;;;;7.13;5.70;;;16.80;99.90;;;;;;5036989;28;20611;-81
2022/08/19 01:43:52;;;;;;;7.10;6.13;;;16.80;99.90;;;;;;5038192;28;20170;-81
2022/08/19 01:46:19;;;;;;;7.63;6.83;;;16.80;99.90;;;;;;5037621;28;20174;-81
2022/08/19 01:48:45;;;;;;;8.27;6.90;;;16.80;99.90;;;;;;5036869;28;20244;-81
2022/08/19 01:51:12;;;;;;;7.70;6.60;;;16.90;99.90;;;;;;5038249;28;20194;-81
2022/08/19 01:53:38;;;;;;;8.00;7.20;;;16.80;99.90;;;;;;5048080;28;20177;-81
2022/08/19 01:56:06;;;;;;;8.87;6.23;;;16.80;99.90;;;;;;5048729;28;20197;-81
2022/08/19 01:58:39;;;;;;;6.70;6.00;;;16.90;99.90;;;;;;5037330;28;20181;-81
2022/08/19 02:01:06;;;;;;;5.80;5.20;;;16.90;99.90;;;;;;5037189;28;20282;-81
2022/08/19 02:03:34;;;;;;;7.87;5.97;;;16.90;99.90;;;;;;5036918;28;20208;-81
2022/08/19 02:06:02;;;;;;;6.60;5.53;;;16.80;99.90;;;;;;5037851;28;20520;-81
2022/08/19 02:08:29;;;;;;;8.83;5.60;;;16.80;99.90;;;;;;5036138;28;20182;-81
2022/08/19 02:10:56;;;;;;;5.67;5.17;;;16.70;99.90;;;;;;5039243;28;20222;-80
2022/08/19 02:13:22;;;;;;;9.73;5.97;;;16.90;99.90;;;;;;5035360;28;20182;-81
2022/08/19 02:15:48;;;;;;;6.23;5.63;;;16.90;99.90;;;;;;5036913;28;20171;-81
2022/08/19 02:18:14;;;;;;;8.20;5.50;;;16.90;99.90;;;;;;5034733;28;20189;-81
2022/08/19 02:20:42;;;;;;;6.40;5.77;;;16.90;99.90;;;;;;5036911;28;20181;-80
2022/08/19 02:23:09;;;;;;;7.13;6.43;;;16.90;99.90;;;;;;5037071;28;20632;-82
2022/08/19 02:25:35;;;;;;;7.67;6.00;;;16.90;99.90;;;;;;5038071;28;20249;-81
2022/08/19 02:28:01;;;;;;;7.53;5.90;;;;;;;;;;5036214;28;20265;-80
2022/08/19 02:30:28;;;;;;;6.60;5.97;;;17.00;99.90;;;;;;5035006;28;20221;-81
2022/08/19 02:32:54;;;;;;;8.30;6.00;;;;;;;;;;5034945;28;20664;-80
2022/08/19 02:35:20;;;;;;;6.63;5.70;;;;;;;;;;5036245;28;20514;-80
2022/08/19 02:40:34;;;;;;;7.30;6.50;;;17.00;99.90;;;;;;5036507;28;20542;-80
2022/08/19 02:43:01;;;;;;;6.87;5.97;;;17.00;99.90;;;;;;5035927;28;20224;-80
2022/08/19 02:45:31;;;;;;;11.10;6.83;;;17.20;99.90;;;;;;5034890;28;20182;-80
2022/08/19 02:47:57;;;;;;;7.07;6.27;;;17.00;99.90;;;;;;5035959;28;20174;-81
2022/08/19 02:50:22;;;;;;;10.10;5.87;;;17.00;99.90;;;;;;5035411;28;20209;-80
2022/08/19 02:52:48;;;;;;;7.87;6.63;;;;;;;;;;5036974;28;20194;-81
2022/08/19 02:55:14;;;;;;;7.43;6.73;;;17.30;99.90;;;;;;5035542;28;20179;-81
2022/08/19 02:57:41;;;;;;;8.60;6.77;;;17.00;99.90;;;;;;5038506;28;20659;-81
2022/08/19 03:00:12;;;;;;;7.40;6.63;;;17.10;99.90;;;;;;5036418;28;20640;-80
2022/08/19 03:02:38;;;;;;;7.23;6.53;;;16.60;99.90;;;;;;5034463;28;20205;-81
2022/08/19 03:05:05;;;;;;;7.90;6.47;;;16.90;99.90;;;;;;5034571;28;20181;-80
2022/08/19 03:07:31;;;;;;;8.60;6.60;;;16.60;99.90;;;;;;5035430;28;20178;-80
2022/08/19 03:09:57;;;;;;;8.37;6.33;;;16.90;99.90;;;;;;5035984;28;20210;-81
2022/08/19 03:12:22;;;;;;;6.63;6.03;;;16.70;99.90;;;;;;5034616;28;20206;-80
2022/08/19 03:14:48;;;;;;;6.40;5.70;;;16.60;99.90;;;;;;5034757;28;20229;-81
2022/08/19 03:17:14;;;;;;;6.00;5.40;;;;;;;;;;5035918;28;20182;-80
2022/08/19 03:19:40;;;;;;;5.93;5.33;;;17.00;99.90;;;;;;5034575;28;20681;-80
2022/08/19 03:22:08;;;;;;;6.40;5.53;;;;;;;;;;5035748;28;20194;-81
2022/08/19 03:24:34;;;;;;;6.37;5.70;;;;;;;;;;5034383;28;20261;-81
2022/08/19 03:27:01;;;;;;;6.60;5.90;;;;;;;;;;5036081;28;20178;-82
2022/08/19 03:29:28;;;;;;;6.10;5.50;;;16.80;99.90;;;;;;5037894;28;20202;-80
2022/08/19 03:31:54;;;;;;;6.47;5.80;;;16.90;99.90;;;;;;5038568;28;20542;-81
2022/08/19 03:34:28;;;;;;;8.03;6.47;;;16.80;99.90;;;;;;5038571;28;20212;-81
2022/08/19 03:36:56;;;;;;;7.27;6.37;;;16.90;99.90;;;;;;5040547;28;20184;-81
2022/08/19 03:39:23;;;;;;;7.07;5.77;;;16.70;99.90;;;;;;5038904;28;20287;-81
2022/08/19 03:41:52;;;;;;;7.00;5.87;;;16.80;99.90;;;;;;5038846;28;20221;-81
2022/08/19 03:44:22;;;;;;;6.70;6.00;;;16.60;99.90;;;;;;5042670;28;20189;-81
2022/08/19 03:46:51;;;;;;;7.00;6.00;;;16.40;99.90;;;;;;5040010;28;20266;-81
2022/08/19 03:49:18;;;;;;;7.70;6.67;;;16.80;99.90;;;;;;5038835;28;20602;-81
2022/08/19 03:51:45;;;;;;;8.20;6.73;;;16.70;99.90;;;;;;5040164;28;20557;-81
2022/08/19 03:54:13;;;;;;;7.37;6.13;;;16.70;99.90;;;;;;5040103;28;20178;-81
2022/08/19 03:56:40;;;;;;;7.23;6.10;;;16.70;99.90;;;;;;5039829;28;20174;-81
2022/08/19 03:59:08;;;;;;;8.53;6.67;;;16.70;99.90;;;;;;5043139;28;20186;-81
2022/08/19 04:01:35;;;;;;;9.27;6.87;;;16.80;99.90;;;;;;5052179;28;20197;-81
2022/08/19 04:04:01;;;;;;;9.00;6.93;;;16.80;99.90;;;;;;5047085;28;20182;-81
2022/08/19 04:06:30;;;;;;;9.00;6.40;;;16.80;99.90;;;;;;5041389;28;20205;-80
2022/08/19 04:08:58;;;;;;;7.10;6.40;;;16.80;99.90;;;;;;5039442;28;20174;-80
2022/08/19 04:11:31;;;;;;;8.93;7.47;;;16.70;99.90;;;;;;5041063;28;20201;-81
2022/08/19 04:13:56;;;;;;;8.07;7.20;;;16.50;99.90;;;;;;5038133;28;20537;-81
2022/08/19 04:16:24;;;;;;;7.87;7.07;;;16.70;99.90;;;;;;5037617;28;20178;-81
2022/08/19 04:18:50;;;;;;;8.73;7.33;;;16.70;99.90;;;;;;5037543;28;20178;-82
2022/08/19 04:21:21;;;;;;;9.67;7.47;;;16.70;99.90;;;;;;5037802;28;20660;-82
2022/08/19 04:23:47;;;;;;;10.33;8.00;;;16.50;99.90;;;;;;5038854;28;20205;-80
2022/08/19 04:26:25;;;;;;;10.43;7.13;;;16.70;99.90;;;;;;5038799;28;20175;-80
2022/08/19 04:28:51;;;;;;;9.77;7.83;;;16.70;99.90;;;;;;5038465;28;20174;-81
2022/08/19 04:31:29;;;;;;;8.27;7.30;;;16.70;99.90;;;;;;5037647;28;20205;-81
2022/08/19 04:34:01;;;;;;;8.23;7.03;;;16.50;99.90;;;;;;5037147;28;20186;-81
2022/08/19 04:36:30;;;;;;;8.97;7.10;;;16.80;99.90;;;;;;5038367;28;20198;-81
2022/08/19 04:38:58;;;;;;;8.50;7.60;;;16.80;99.90;;;;;;5036854;28;20240;-81
2022/08/19 04:44:10;;;;;;;7.40;6.60;;;16.60;99.90;;;;;;5038851;28;20213;-81
2022/08/19 04:46:36;;;;;;;7.93;7.13;;;16.60;99.90;;;;;;5037053;28;20209;-81
2022/08/19 04:49:04;;;;;;;9.00;7.43;;;16.90;99.90;;;;;;5038011;28;20209;-81
2022/08/19 04:51:31;;;;;;;8.47;7.47;;;16.80;99.90;;;;;;5036827;28;20202;-82
2022/08/19 04:53:56;;;;;;;8.40;7.50;;;16.70;99.90;;;;;;5037125;28;20182;-81
2022/08/19 04:56:25;;;;;;;8.17;7.10;;;16.90;99.90;;;;;;5037193;28;20583;-81
2022/08/19 04:58:51;;;;;;;8.53;6.87;;;;;;;;;;5037043;28;20650;-81
2022/08/19 05:01:23;;;;;;;9.03;6.60;;;16.90;99.90;;;;;;5038266;28;20231;-81
2022/08/19 05:03:49;;;;;;;7.40;6.53;;;16.90;99.90;;;;;;5038292;28;20178;-81
2022/08/19 05:06:17;;;;;;;10.97;5.97;;;16.90;99.90;;;;;;5039530;28;20178;-81
2022/08/19 05:08:44;;;;;;;7.00;6.00;;;17.00;99.90;;;;;;5037237;28;20190;-82
2022/08/19 05:11:16;;;;;;;7.60;6.57;;;17.00;99.90;;;;;;5038962;28;20287;-81
2022/08/19 05:13:43;;;;;;;7.17;6.47;;;16.80;99.90;;;;;;5038624;28;20178;-81
2022/08/19 05:16:11;;;;;;;7.10;5.90;;;16.80;99.90;;;;;;5037439;28;20182;-82
2022/08/19 05:24:09;;;;;;;7.87;6.53;;;17.00;99.90;;;;;;5038978;28;20197;-81
2022/08/19 05:26:46;;;;;;;7.07;6.03;;;17.20;99.90;;;;;;5037977;28;20182;-81
2022/08/19 05:29:12;;;;;;;6.03;5.40;;;17.30;99.90;;;;;;5036750;28;20609;-81
2022/08/19 05:31:38;;;;;;;5.53;4.83;;;;;;;;;;5036450;28;20226;-81
2022/08/19 05:34:05;;;;;;;6.30;5.63;;;17.00;99.90;;;;;;5038155;28;20346;-81
2022/08/19 05:36:44;;;;;;;5.70;5.07;;;17.20;99.90;;;;;;5037595;28;20177;-81
2022/08/19 05:39:13;;;;;;;6.37;5.17;;;17.10;99.90;;;;;;5036382;28;20640;-81
2022/08/19 05:41:44;;;;;;;6.50;4.93;;;17.10;99.90;;;;;;5036481;28;20202;-81
2022/08/19 05:44:10;;;;;;;6.03;5.37;;;;;;;;;;5037426;28;20178;-81
2022/08/19 05:46:37;;;;;;;6.27;5.67;;;17.20;99.90;;;;;;5037017;28;20183;-81
2022/08/19 05:49:07;;;;;;;6.87;5.50;;;17.20;99.90;;;;;;5037807;28;20576;-81
2022/08/19 05:51:34;;;;;;;5.87;5.27;;;17.20;99.90;;;;;;5038186;28;20194;-81
2022/08/19 05:54:04;;;;;;;6.73;5.80;;;17.40;99.90;;;;;;5036055;28;20239;-81
2022/08/19 05:56:30;;;;;;;7.10;6.40;;;17.20;99.90;;;;;;5038658;28;20228;-81
2022/08/19 05:58:56;;;;;;;6.97;6.27;;;;;;;;;;5039027;28;20170;-81
2022/08/19 06:01:22;;;;;;;7.60;6.70;;;17.40;99.90;;;;;;5038136;28;20201;-81
2022/08/19 06:03:48;;;;;;;7.47;6.17;;;;;;;;;;5037879;28;20644;-82
2022/08/19 06:06:16;;;;;;;10.57;6.60;;;17.30;99.90;;;;;;5041164;28;20172;-81
2022/08/19 06:08:49;;;;;;;11.53;7.37;;;;;;;;;;5046858;28;20193;-81
2022/08/19 06:11:22;;;;;;;7.77;6.57;;;17.10;99.90;;;;;;5043486;28;20365;-81
2022/08/19 06:13:50;;;;;;;8.80;7.50;;;17.20;99.90;;;;;;5035986;28;20178;-81
2022/08/19 06:16:22;;;;;;;10.13;8.13;;;17.10;99.90;;;;;;5037746;28;20521;-81
2022/08/19 06:18:52;;;;;;;13.63;9.23;;;17.10;99.90;;;;;;5036443;28;20257;-81
2022/08/19 07:17:27;;;;;;;28.67;18.43;;;17.20;99.90;;;;;;5115111;27;20536;-81
2022/08/19 07:19:53;;;;;;;30.83;19.80;;;17.10;99.90;;;;;;5113072;28;20267;-80
2022/08/19 07:22:20;;;;;;;28.67;18.73;;;17.10;99.90;;;;;;5114750;28;20748;-81
2022/08/19 07:24:46;;;;;;;26.13;18.60;;;17.10;99.90;;;;;;5114971;28;20172;-81
2022/08/19 07:27:13;;;;;;;29.47;18.50;;;17.10;99.90;;;;;;5114485;28;20652;-81
2022/08/19 07:29:39;;;;;;;25.47;17.67;;;17.20;99.90;;;;;;5113401;28;20509;-82
2022/08/19 07:32:05;;;;;;;20.47;15.37;;;17.20;99.90;;;;;;5114599;28;20217;-81
2022/08/19 08:10:42;;;;;;;11.87;8.77;;;17.20;99.90;;;;;;5135676;27;20273;-80
2022/08/19 08:13:07;;;;;;;10.80;7.53;;;17.10;99.90;;;;;;5134730;28;20262;-80
2022/08/19 08:15:33;;;;;;;9.37;7.30;;;17.20;99.90;;;;;;5140675;28;20205;-81
2022/08/19 08:17:59;;;;;;;9.90;8.10;;;;;;;;;;5147659;27;20168;-81
2022/08/19 08:20:25;;;;;;;12.30;8.00;;;17.20;99.90;;;;;;5139159;28;20175;-80
2022/08/19 08:47:31;;;;;;;8.83;7.87;;;17.20;99.90;;;;;;5114132;27;20528;-81
2022/08/19 08:50:06;;;;;;;9.57;8.47;;;17.20;99.90;;;;;;5112957;28;20637;-81
2022/08/19 08:52:42;;;;;;;12.80;8.57;;;17.20;99.90;;;;;;5112982;28;20195;-81
2022/08/19 08:55:15;;;;;;;10.57;9.20;;;17.20;99.90;;;;;;5112754;28;20637;-81
2022/08/19 08:57:56;;;;;;;10.63;8.93;;;17.20;99.90;;;;;;5112268;28;20262;-81
2022/08/19 09:00:26;;;;;;;11.50;9.93;;;17.20;99.90;;;;;;5114039;28;20167;-81
2022/08/19 09:38:40;;;;;;;8.27;6.57;;;17.10;99.90;;;;;;5134816;27;20281;-80
2022/08/19 09:41:20;;;;;;;13.00;7.13;;;17.20;99.90;;;;;;5115909;28;20199;-80
2022/08/19 09:43:51;;;;;;;8.30;6.63;;;17.10;99.90;;;;;;5134683;28;20620;-81
2022/08/19 09:46:17;;;;;;;8.93;5.83;;;17.20;99.90;;;;;;5133503;28;20181;-81
2022/08/19 09:48:44;;;;;;;6.40;5.70;;;17.20;99.90;;;;;;5132976;28;20175;-80
2022/08/19 09:51:15;;;;;;;7.27;6.20;;;17.20;99.90;;;;;;5133131;28;20190;-80
2022/08/19 09:53:43;;;;;;;7.53;6.20;;;17.20;99.90;;;;;;5133454;28;20637;-81
2022/08/19 11:28:53;;;;;;;6.30;5.30;;;16.70;99.90;;;;;;5114790;27;20511;-81
2022/08/19 11:31:22;;;;;;;7.03;5.10;;;16.80;99.90;;;;;;5114710;28;20229;-81
2022/08/19 11:33:51;;;;;;;8.73;4.37;;;16.70;99.90;;;;;;5114544;28;20702;-81
2022/08/19 11:36:17;;;;;;;6.20;4.17;;;16.80;99.90;;;;;;5113383;28;20175;-81
2022/08/19 11:38:43;;;;;;;5.20;3.60;;;16.80;99.90;;;;;;5113123;28;20186;-81
2022/08/19 11:41:09;;;;;;;4.20;3.37;;;16.90;99.90;;;;;;5114620;28;20286;-80
2022/08/19 11:43:35;;;;;;;4.73;3.67;;;17.00;99.90;;;;;;5115822;28;20204;-81
2022/08/19 11:46:09;;;;;;;4.70;3.37;;;17.00;99.90;;;;;;5114509;28;20189;-81
2022/08/19 11:48:36;;;;;;;3.67;3.33;;;16.90;99.90;;;;;;5112550;28;20233;-81
2022/08/19 11:51:06;;;;;;;3.77;3.00;;;17.00;99.90;;;;;;5113100;28;20168;-81
2022/08/19 11:53:32;;;;;;;3.37;3.07;;;17.10;99.90;;;;;;5113035;28;20175;-81
2022/08/19 11:55:58;;;;;;;4.10;3.70;;;17.10;99.90;;;;;;5113292;28;20256;-81
2022/08/19 11:58:27;;;;;;;3.97;3.57;;;;;;;;;;5113389;28;20242;-81
2022/08/19 12:00:53;;;;;;;3.77;3.10;;;17.10;99.90;;;;;;5113021;28;20183;-81
2022/08/19 12:03:19;;;;;;;3.40;3.10;;;17.20;99.90;;;;;;5114185;28;20175;-81
2022/08/19 12:05:45;;;;;;;3.60;3.23;;;17.20;99.90;;;;;;5114144;28;20250;-81
2022/08/19 12:08:12;;;;;;;3.43;2.97;;;17.20;99.90;;;;;;5112940;28;20260;-82
2022/08/19 12:10:41;;;;;;;4.30;3.90;;;17.30;99.90;;;;;;5114616;28;20218;-81
2022/08/19 12:13:07;;;;;;;4.47;4.07;;;17.40;99.90;;;;;;5114046;28;20187;-81
2022/08/19 12:15:40;;;;;;;4.20;3.80;;;17.40;99.90;;;;;;5114325;28;20657;-81
2022/08/19 12:18:07;;;;;;;4.67;4.27;;;17.50;99.90;;;;;;5112736;28;20168;-81
2022/08/19 12:20:39;;;;;;;5.17;4.30;;;17.50;99.90;;;;;;5113886;28;20570;-81
2022/08/19 12:23:06;;;;;;;6.03;5.40;;;17.60;99.90;;;;;;5114267;28;20194;-81
2022/08/19 12:25:34;;;;;;;5.90;5.20;;;17.70;99.90;;;;;;5112715;28;20175;-81
2022/08/19 12:27:59;;;;;;;6.83;5.33;;;17.70;99.90;;;;;;5113430;28;20575;-81
2022/08/19 12:30:26;;;;;;;7.67;5.10;;;;;;;;;;5113816;28;20172;-80
2022/08/19 12:32:51;;;;;;;5.77;5.20;;;17.70;99.90;;;;;;5113930;28;20198;-81
2022/08/19 12:35:19;;;;;;;6.47;5.87;;;17.70;99.90;;;;;;5122559;28;20183;-81
2022/08/19 12:37:47;;;;;;;7.57;5.97;;;17.70;99.90;;;;;;5129370;28;20151;-81
2022/08/19 12:40:15;;;;;;;5.90;5.30;;;17.60;99.90;;;;;;5103750;28;20650;-81
2022/08/19 12:42:43;;;;;;;6.20;5.67;;;17.70;99.90;;;;;;5097911;28;20196;-81
2022/08/19 12:45:11;;;;;;;6.33;5.13;;;17.70;99.90;;;;;;5099134;28;20254;-81
2022/08/19 12:47:37;;;;;;;6.53;5.93;;;17.80;99.90;;;;;;5099781;28;20217;-81
2022/08/19 12:50:04;;;;;;;5.87;5.27;;;17.50;99.90;;;;;;5099013;28;20173;-81
2022/08/19 12:52:30;;;;;;;6.60;5.60;;;18.00;99.90;;;;;;5098034;28;20196;-81
2022/08/19 12:54:57;;;;;;;6.03;5.43;;;18.00;99.90;;;;;;5098452;28;20184;-81
2022/08/19 12:57:25;;;;;;;6.13;5.53;;;18.10;99.90;;;;;;5099444;28;20642;-81
2022/08/19 12:59:53;;;;;;;6.83;6.20;;;18.10;99.90;;;;;;5099517;28;20222;-81
2022/08/19 13:02:19;;;;;;;7.00;6.30;;;18.50;99.90;;;;;;5097810;28;20261;-81
2022/08/19 13:04:45;;;;;;;6.33;5.73;;;18.30;99.90;;;;;;5100623;28;20211;-81
2022/08/19 13:07:11;;;;;;;6.87;6.17;;;18.40;99.90;;;;;;5102060;28;20574;-81
2022/08/19 13:09:37;;;;;;;6.20;5.60;;;18.20;99.90;;;;;;5098159;28;20177;-81
2022/08/19 13:12:07;;;;;;;6.27;5.67;;;18.20;99.90;;;;;;5099462;28;20201;-81
2022/08/19 13:14:34;;;;;;;5.90;5.37;;;18.20;99.90;;;;;;5098835;28;20175;-81
2022/08/19 13:17:00;;;;;;;5.43;4.90;;;18.10;99.90;;;;;;5097846;28;20229;-81
2022/08/19 13:19:26;;;;;;;5.33;4.83;;;18.10;99.90;;;;;;5101330;28;20259;-81
2022/08/19 13:21:53;;;;;;;4.77;4.27;;;18.10;99.90;;;;;;5097457;28;20200;-80
2022/08/19 13:24:19;;;;;;;4.70;4.30;;;18.20;99.90;;;;;;5097699;28;20185;-81
2022/08/19 13:26:45;;;;;;;4.87;4.37;;;18.20;99.90;;;;;;5098386;28;20231;-81
2022/08/19 13:34:39;;;;;;;4.50;3.73;;;18.40;99.90;;;;;;5097828;28;20189;-81
2022/08/19 13:37:05;;;;;;;3.60;3.30;;;18.30;99.90;;;;;;5096475;28;20272;-81
2022/08/19 13:39:36;;;;;;;4.10;3.53;;;18.20;99.90;;;;;;5096266;28;20178;-80
2022/08/19 13:42:03;;;;;;;3.17;2.87;;;18.30;99.90;;;;;;5097721;28;20199;-81
2022/08/19 13:44:29;;;;;;;3.07;2.87;;;18.40;99.90;;;;;;5098182;28;20233;-81
2022/08/19 13:47:06;;;;;;;3.17;2.67;;;18.50;99.90;;;;;;5098415;28;20556;-81
2022/08/19 13:49:32;;;;;;;3.33;3.03;;;18.60;99.90;;;;;;5096373;28;20211;-80
2022/08/19 13:51:58;;;;;;;3.70;2.90;;;19.00;99.90;;;;;;5095932;28;20194;-81
2022/08/19 13:54:23;;;;;;;2.80;2.60;;;19.10;99.90;;;;;;5099791;28;20309;-80
2022/08/19 13:56:49;;;;;;;2.93;2.73;;;19.30;99.90;;;;;;5096224;28;20208;-81
2022/08/19 13:59:15;;;;;;;3.43;3.13;;;19.30;99.90;;;;;;5097563;28;20180;-81
2022/08/19 14:01:41;;;;;;;3.27;2.90;;;19.40;99.90;;;;;;5096887;28;20206;-80
2022/08/19 14:04:08;;;;;;;3.23;2.93;;;19.40;99.90;;;;;;5097930;28;20179;-82
2022/08/19 14:06:34;;;;;;;2.60;2.40;;;19.40;99.90;;;;;;5097467;28;20230;-80
2022/08/19 14:09:01;;;;;;;2.83;2.63;;;19.20;99.90;;;;;;5095958;28;20190;-80
2022/08/19 14:11:27;;;;;;;2.90;2.70;;;19.10;99.90;;;;;;5095662;28;20200;-81
2022/08/19 14:13:53;;;;;;;3.30;2.10;;;19.00;99.90;;;;;;5095889;28;20724;-80
2022/08/19 14:16:19;;;;;;;2.13;1.93;;;19.00;99.90;;;;;;5097780;28;20195;-80
2022/08/19 14:18:45;;;;;;;1.60;1.50;;;19.20;99.90;;;;;;5097761;28;20181;-81
2022/08/19 14:21:23;;;;;;;2.40;1.70;;;19.20;99.90;;;;;;5097361;28;20734;-80
2022/08/19 14:23:49;;;;;;;2.20;1.97;;;19.20;99.90;;;;;;5101146;28;20176;-80
2022/08/19 14:26:18;;;;;;;2.20;2.00;;;19.30;99.90;;;;;;5105325;28;20183;-81
2022/08/19 14:28:44;;;;;;;2.37;2.17;;;19.20;99.90;;;;;;5101317;28;20215;-80
2022/08/19 14:31:12;;;;;;;1.60;1.50;;;19.10;99.90;;;;;;5097322;28;20692;-81
2022/08/19 14:33:38;;;;;;;1.77;1.67;;;19.10;99.90;;;;;;5096549;28;20184;-81
2022/08/19 14:36:05;;;;;;;1.70;1.60;;;19.10;99.90;;;;;;5098109;28;20641;-80
2022/08/19 14:38:31;;;;;;;2.37;1.40;;;19.20;99.90;;;;;;5098491;28;20185;-81
2022/08/19 14:41:07;;;;;;;1.30;1.20;;;19.20;99.90;;;;;;5096101;28;20184;-80
2022/08/19 14:43:34;;;;;;;1.50;1.40;;;19.30;99.90;;;;;;5096572;28;20185;-81
2022/08/19 14:45:59;;;;;;;1.30;1.20;;;19.30;99.90;;;;;;5106937;28;20173;-81
2022/08/19 14:48:26;;;;;;;2.03;1.20;;;19.20;99.90;;;;;;5117613;28;20212;-81
2022/08/19 14:50:52;;;;;;;1.27;1.17;;;19.20;99.90;;;;;;5104029;28;20178;-81
2022/08/19 14:53:17;;;;;;;1.30;1.10;;;19.50;99.90;;;;;;5095573;28;20636;-80
2022/08/19 14:55:45;;;;;;;0.93;0.93;;;19.60;99.90;;;;;;5097216;28;20178;-81
2022/08/19 14:58:12;;;;;;;1.73;1.20;;;19.60;99.90;;;;;;5096737;28;20179;-80
2022/08/19 15:00:38;;;;;;;1.77;1.57;;;19.40;99.90;;;;;;5094779;28;20181;-81
2022/08/19 15:03:03;;;;;;;1.60;1.20;;;19.10;99.90;;;;;;5094266;28;20223;-82
2022/08/19 15:05:29;;;;;;;1.50;1.20;;;19.00;99.90;;;;;;5096235;28;20250;-81
2022/08/19 15:07:56;;;;;;;1.20;1.10;;;18.90;99.90;;;;;;5093828;28;20225;-81
2022/08/19 15:10:24;;;;;;;1.50;1.40;;;18.80;99.90;;;;;;5095764;28;20219;-81
2022/08/19 15:12:50;;;;;;;0.90;0.90;;;18.70;99.90;;;;;;5096030;28;20195;-81
2022/08/19 15:15:20;;;;;;;1.47;1.10;;;18.60;99.90;;;;;;5094612;28;20178;-81
2022/08/19 15:17:46;;;;;;;1.20;1.10;;;18.60;99.90;;;;;;5094669;28;20181;-81
2022/08/19 15:20:19;;;;;;;1.40;1.23;;;18.60;99.90;;;;;;5095015;28;20177;-81
2022/08/19 15:22:45;;;;;;;1.40;1.30;;;18.40;99.90;;;;;;5094607;28;20593;-81
2022/08/19 15:25:13;;;;;;;1.20;1.10;;;18.20;99.90;;;;;;5095015;28;20188;-81
2022/08/19 15:27:39;;;;;;;2.13;1.67;;;18.10;99.90;;;;;;5096191;28;20286;-81
2022/08/19 15:30:10;;;;;;;1.30;1.20;;;18.10;99.90;;;;;;5096852;28;20644;-81
2022/08/19 15:32:37;;;;;;;1.70;1.60;;;18.00;99.90;;;;;;5097139;28;20201;-81
2022/08/19 15:35:05;;;;;;;1.83;1.53;;;18.00;99.90;;;;;;5097145;28;20178;-81
2022/08/19 15:37:31;;;;;;;1.80;1.70;;;18.00;99.90;;;;;;5100214;28;20652;-81
2022/08/19 15:39:57;;;;;;;1.80;1.60;;;17.90;99.90;;;;;;5101171;28;20180;-81
2022/08/19 15:42:22;;;;;;;1.80;1.70;;;17.90;99.90;;;;;;5102379;28;20202;-81
2022/08/19 15:44:48;;;;;;;2.03;1.90;;;17.90;99.90;;;;;;5100483;28;20561;-81
2022/08/19 15:47:14;;;;;;;1.67;1.57;;;17.80;99.90;;;;;;5095032;28;20209;-81
2022/08/19 15:49:40;;;;;;;2.30;2.10;;;17.90;99.90;;;;;;5095163;28;20662;-81
2022/08/19 15:52:06;;;;;;;1.83;1.73;;;17.80;99.90;;;;;;5095815;28;20190;-81
2022/08/19 15:54:33;;;;;;;1.70;1.60;;;17.70;99.90;;;;;;5095909;28;20553;-81
2022/08/19 16:08:01;;;;;;;1.30;1.20;;;17.50;99.90;;;;;;5101376;28;20236;-81
2022/08/19 16:10:27;;;;;;;1.67;1.30;;;17.40;99.90;;;;;;5102371;28;20185;-81
2022/08/19 16:12:53;;;;;;;1.87;1.60;;;17.30;99.90;;;;;;5097650;28;20187;-81
2022/08/19 16:15:19;;;;;;;1.50;1.40;;;17.30;99.90;;;;;;5097735;28;20188;-81
2022/08/19 16:17:46;;;;;;;1.80;1.70;;;17.20;99.90;;;;;;5097888;28;20722;-81
2022/08/19 16:20:12;;;;;;;2.37;2.17;;;17.20;99.90;;;;;;5098953;28;20181;-81
2022/08/19 16:22:39;;;;;;;2.60;2.40;;;17.10;99.90;;;;;;5097481;28;20701;-81
2022/08/19 16:25:07;;;;;;;2.70;2.50;;;17.10;99.90;;;;;;5098165;28;20191;-81
2022/08/19 16:27:33;;;;;;;3.33;2.90;;;17.10;99.90;;;;;;5097179;28;20220;-81
2022/08/19 16:29:59;;;;;;;3.07;2.77;;;17.10;99.90;;;;;;5099166;28;20169;-80
2022/08/19 16:32:25;;;;;;;2.60;2.40;;;17.00;99.90;;;;;;5098853;28;20194;-81
2022/08/19 16:34:51;;;;;;;3.30;3.00;;;17.00;99.90;;;;;;5098886;28;20710;-81
2022/08/19 16:37:17;;;;;;;2.93;2.73;;;16.90;99.90;;;;;;5097156;28;20217;-81
2022/08/19 16:39:43;;;;;;;3.00;2.80;;;16.90;99.90;;;;;;5098768;28;20264;-82
2022/08/19 16:42:10;;;;;;;2.60;2.40;;;16.90;99.90;;;;;;5098110;28;20291;-81
2022/08/19 16:44:39;;;;;;;3.27;2.97;;;16.90;99.90;;;;;;5097017;28;20178;-81
2022/08/19 16:47:05;;;;;;;3.03;2.77;;;16.80;99.90;;;;;;5096956;28;20210;-81
2022/08/19 16:49:31;;;;;;;2.80;2.60;;;16.80;99.90;;;;;;5096834;28;20187;-82
2022/08/19 16:51:57;;;;;;;4.17;2.90;;;16.70;99.90;;;;;;5098406;28;20189;-82
2022/08/19 16:54:23;;;;;;;3.73;3.43;;;16.70;99.90;;;;;;5098014;28;20181;-81
2022/08/19 16:56:50;;;;;;;4.20;3.80;;;16.60;99.90;;;;;;5100713;28;20177;-81
2022/08/19 16:59:16;;;;;;;4.37;3.97;;;16.50;99.90;;;;;;5116073;28;20172;-81
2022/08/19 17:01:42;;;;;;;5.70;4.30;;;16.30;99.90;;;;;;5121193;28;20207;-81
2022/08/19 17:04:12;;;;;;;4.93;4.50;;;16.30;99.90;;;;;;5117568;28;20172;-80
2022/08/19 17:06:38;;;;;;;5.40;4.93;;;16.10;99.90;;;;;;5103655;28;20176;-81
2022/08/19 17:09:05;;;;;;;5.90;5.30;;;16.10;99.90;;;;;;5096838;28;20574;-81
2022/08/19 17:11:32;;;;;;;6.23;4.93;;;16.00;99.90;;;;;;5097663;28;20254;-81
2022/08/19 17:14:02;;;;;;;5.27;4.77;;;16.00;99.90;;;;;;5096594;28;20176;-81
2022/08/19 17:16:32;;;;;;;6.57;5.93;;;15.90;99.90;;;;;;5096338;28;20185;-82
2022/08/19 17:19:01;;;;;;;5.57;5.07;;;16.00;99.90;;;;;;5097755;28;20172;-82
2022/08/19 17:21:31;;;;;;;5.70;5.20;;;16.00;99.90;;;;;;5098144;28;20225;-82
2022/08/19 17:24:01;;;;;;;6.57;5.50;;;15.90;99.90;;;;;;5097873;28;20180;-82